TAF KAEG
KAEG 090539Z 0906/1006 19008KT P6SM SCT070 FM090900 25009KT P6SM FEW070 FM091900 23012G22KT P6SM FEW070 FM100400 22010KT P6SM FEW060=
METAR KAEG
WC KAEG
WS KAEG
WV KAEG